createdAt,value
2022-08-31T00:00:28.514Z,100757.75
2022-08-31T00:03:17.516Z,100758.30
2022-08-31T00:05:49.113Z,100761.63
2022-08-31T00:08:20.403Z,100759.42
2022-08-31T00:10:51.478Z,100759.31
2022-08-31T00:13:26.190Z,100757.96
2022-08-31T00:15:58.654Z,100759.98
2022-08-31T00:18:29.639Z,100761.45
2022-08-31T00:21:00.927Z,100762.55
2022-08-31T00:23:32.280Z,100771.27
2022-08-31T00:26:03.256Z,100770.52
2022-08-31T00:28:34.463Z,100769.06
2022-08-31T00:31:05.632Z,100772.46
2022-08-31T00:33:40.753Z,100769.34
2022-08-31T00:36:15.018Z,100771.30
2022-08-31T00:38:48.298Z,100776.59
2022-08-31T00:41:21.162Z,100776.67
2022-08-31T00:43:55.490Z,100775.91
2022-08-31T00:46:28.909Z,100779.95
2022-08-31T00:49:04.495Z,100780.18
2022-08-31T00:51:41.975Z,100776.61
2022-08-31T00:54:15.533Z,100780.96
2022-08-31T00:56:46.947Z,100782.91
2022-08-31T00:59:20.188Z,100783.98
2022-08-31T01:01:51.764Z,100782.80
2022-08-31T01:04:23.233Z,100782.02
2022-08-31T01:06:54.777Z,100778.77
2022-08-31T01:09:29.911Z,100779.48
2022-08-31T01:11:59.309Z,100775.56
2022-08-31T01:14:30.877Z,100777.34
2022-08-31T01:17:02.505Z,100776.20
2022-08-31T01:19:39.835Z,100777.62
2022-08-31T01:22:17.114Z,100778.73
2022-08-31T01:24:49.889Z,100783.92
2022-08-31T01:27:24.800Z,100783.76
2022-08-31T01:29:59.655Z,100784.67
2022-08-31T01:32:32.852Z,100781.59
2022-08-31T01:35:03.797Z,100781.48
2022-08-31T01:37:36.447Z,100778.05
2022-08-31T01:40:09.750Z,100776.50
2022-08-31T01:42:40.818Z,100780.64
2022-08-31T01:45:14.895Z,100779.46
2022-08-31T01:47:46.004Z,100776.16
2022-08-31T01:50:17.208Z,100777.95
2022-08-31T01:52:48.249Z,100774.19
2022-08-31T01:55:19.383Z,100770.74
2022-08-31T01:57:51.164Z,100772.49
2022-08-31T02:00:40.293Z,100776.66
2022-08-31T02:03:11.538Z,100772.36
2022-08-31T02:05:43.484Z,100774.44
2022-08-31T02:08:14.454Z,100771.86
2022-08-31T02:10:46.536Z,100774.46
2022-08-31T02:13:17.878Z,100770.02
2022-08-31T02:15:49.135Z,100770.39
2022-08-31T02:18:20.281Z,100769.60
2022-08-31T02:20:54.214Z,100770.48
2022-08-31T02:23:25.287Z,100767.23
2022-08-31T02:25:56.956Z,100766.79
2022-08-31T02:28:28.152Z,100763.38
2022-08-31T02:30:59.706Z,100766.16
2022-08-31T02:33:33.606Z,100766.52
2022-08-31T02:36:06.059Z,100763.13
2022-08-31T02:38:40.756Z,100767.81
2022-08-31T02:41:13.883Z,100767.34
2022-08-31T02:43:46.284Z,100764.64
2022-08-31T02:46:18.181Z,100765.73
2022-08-31T02:49:01.509Z,100763.37
2022-08-31T02:51:33.165Z,100762.01
2022-08-31T02:54:09.943Z,100764.58
2022-08-31T02:57:04.377Z,100764.94
2022-08-31T02:59:36.892Z,100768.77
2022-08-31T03:02:08.141Z,100768.27
2022-08-31T03:04:41.178Z,100769.30
2022-08-31T03:07:12.304Z,100770.18
2022-08-31T03:09:43.314Z,100765.69
2022-08-31T03:12:16.217Z,100767.78
2022-08-31T03:14:47.240Z,100770.59
2022-08-31T03:17:18.256Z,100772.16
2022-08-31T03:19:49.323Z,100773.92
2022-08-31T03:22:20.498Z,100773.21
2022-08-31T03:24:52.146Z,100776.52
2022-08-31T03:27:27.224Z,100775.34
2022-08-31T03:29:59.846Z,100775.87
2022-08-31T03:32:34.194Z,100775.56
2022-08-31T03:35:06.147Z,100776.79
2022-08-31T03:37:37.754Z,100780.25
2022-08-31T03:40:11.432Z,100780.41
2022-08-31T03:42:44.782Z,100781.40
2022-08-31T03:45:16.559Z,100785.34
2022-08-31T03:47:47.583Z,100787.36
2022-08-31T03:50:19.144Z,100793.86
2022-08-31T03:53:06.426Z,100795.69
2022-08-31T03:55:42.785Z,100791.16
2022-08-31T03:58:14.885Z,100792.79
2022-08-31T04:00:49.801Z,100790.66
2022-08-31T04:03:36.743Z,100791.79
2022-08-31T04:06:26.535Z,100788.77
2022-08-31T04:09:29.958Z,100787.33
2022-08-31T04:12:20.562Z,100785.71
2022-08-31T04:15:12.336Z,100791.21
2022-08-31T04:18:02.045Z,100792.52
2022-08-31T04:20:55.137Z,100795.67
2022-08-31T04:23:30.126Z,100795.02
2022-08-31T04:26:01.697Z,100797.80
2022-08-31T04:28:33.066Z,100800.44
2022-08-31T04:31:09.643Z,100806.34
2022-08-31T04:33:42.090Z,100810.56
2022-08-31T04:36:16.469Z,100812.35
2022-08-31T04:38:49.343Z,100813.26
2022-08-31T04:41:22.386Z,100814.36
2022-08-31T04:43:56.500Z,100818.90
2022-08-31T04:46:28.577Z,100820.66
2022-08-31T04:49:00.326Z,100822.63
2022-08-31T04:51:35.651Z,100822.22
2022-08-31T04:54:09.732Z,100825.60
2022-08-31T04:56:43.650Z,100825.51
2022-08-31T04:59:18.076Z,100826.95
2022-08-31T05:02:09.173Z,100832.21
2022-08-31T05:04:43.928Z,100833.23
2022-08-31T05:07:18.404Z,100830.25
2022-08-31T05:09:49.695Z,100830.55
2022-08-31T05:12:20.943Z,100830.02
2022-08-31T05:14:52.002Z,100830.44
2022-08-31T05:17:30.767Z,100830.56
2022-08-31T05:20:02.573Z,100824.29
2022-08-31T05:22:34.555Z,100827.62
2022-08-31T05:25:08.093Z,100823.95
2022-08-31T05:27:41.213Z,100831.90
2022-08-31T05:30:17.338Z,100833.55
2022-08-31T05:33:09.067Z,100834.05
2022-08-31T05:35:44.794Z,100841.32
2022-08-31T05:38:16.632Z,100840.45
2022-08-31T05:40:54.677Z,100842.60
2022-08-31T05:43:26.262Z,100844.33
2022-08-31T05:45:58.380Z,100850.30
2022-08-31T05:48:34.028Z,100850.85
2022-08-31T05:51:08.157Z,100846.08
2022-08-31T05:53:43.974Z,100850.95
2022-08-31T05:56:20.150Z,100852.16
2022-08-31T05:58:53.392Z,100846.64
2022-08-31T06:01:30.178Z,100848.51
2022-08-31T06:04:09.431Z,100853.85
2022-08-31T06:06:41.847Z,100856.38
2022-08-31T06:09:33.662Z,100863.61
2022-08-31T06:12:07.054Z,100865.11
2022-08-31T06:14:38.988Z,100869.96
2022-08-31T06:17:10.424Z,100877.21
2022-08-31T06:19:43.700Z,100879.70
2022-08-31T06:22:14.833Z,100884.64
2022-08-31T06:24:46.136Z,100885.09
2022-08-31T06:27:30.025Z,100885.99
2022-08-31T06:30:04.938Z,100885.65
2022-08-31T06:32:41.399Z,100884.00
2022-08-31T06:35:14.456Z,100880.94
2022-08-31T06:38:14.843Z,100881.41
2022-08-31T06:41:18.878Z,100880.04
2022-08-31T06:44:11.127Z,100885.00
2022-08-31T06:46:57.265Z,100880.94
2022-08-31T06:49:31.027Z,100882.32
2022-08-31T06:52:03.755Z,100884.61
2022-08-31T06:54:36.148Z,100878.23
2022-08-31T06:57:43.116Z,100874.40
2022-08-31T07:00:54.215Z,100869.27
2022-08-31T07:03:34.668Z,100870.60
2022-08-31T07:06:11.613Z,100875.40
2022-08-31T07:12:36.934Z,100876.33
2022-08-31T07:15:10.511Z,100877.45
2022-08-31T07:17:41.976Z,100881.16
2022-08-31T07:20:15.180Z,100875.62
2022-08-31T07:22:47.522Z,100880.88
2022-08-31T07:25:40.767Z,100882.94
2022-08-31T07:28:13.486Z,100881.05
2022-08-31T07:30:47.283Z,100878.55
2022-08-31T07:33:23.207Z,100873.14
2022-08-31T07:35:59.519Z,100874.39
2022-08-31T07:39:18.027Z,100884.91
2022-08-31T07:43:20.166Z,100879.63
2022-08-31T07:45:49.815Z,100880.39
2022-08-31T07:48:25.955Z,100877.42
2022-08-31T07:51:17.108Z,100876.99
2022-08-31T07:53:54.561Z,100883.84
2022-08-31T07:56:35.224Z,100883.88
2022-08-31T07:59:16.047Z,100880.67
2022-08-31T08:01:56.120Z,100881.13
2022-08-31T08:04:29.170Z,100876.36
2022-08-31T08:07:40.704Z,100876.02
2022-08-31T08:10:40.145Z,100876.31
2022-08-31T08:13:38.269Z,100877.05
2022-08-31T08:16:31.183Z,100880.52
2022-08-31T08:19:26.381Z,100884.02
2022-08-31T08:21:58.081Z,100887.62
2022-08-31T08:24:32.922Z,100885.88
2022-08-31T08:27:07.424Z,100896.65
2022-08-31T08:29:54.666Z,100893.80
2022-08-31T08:32:31.640Z,100899.84
2022-08-31T08:35:05.067Z,100901.39
2022-08-31T08:37:57.095Z,100899.83
2022-08-31T08:40:34.367Z,100899.12
2022-08-31T08:43:06.690Z,100898.58
2022-08-31T08:45:39.118Z,100901.52
2022-08-31T08:48:15.265Z,100899.20
2022-08-31T08:50:47.131Z,100901.84
2022-08-31T08:53:35.366Z,100896.48
2022-08-31T08:56:33.740Z,100894.73
2022-08-31T08:59:11.489Z,100892.02
2022-08-31T09:01:49.039Z,100892.68
2022-08-31T09:04:41.178Z,100896.14
2022-08-31T09:07:45.343Z,100899.08
2022-08-31T09:10:27.394Z,100897.01
2022-08-31T09:13:12.398Z,100893.73
2022-08-31T09:15:57.124Z,100897.64
2022-08-31T09:18:45.975Z,100896.48
2022-08-31T09:21:30.994Z,100900.12
2022-08-31T09:24:05.232Z,100900.88
2022-08-31T09:27:17.889Z,100895.13
2022-08-31T09:29:54.280Z,100894.98
2022-08-31T09:32:31.779Z,100894.44
2022-08-31T09:35:05.727Z,100894.53
2022-08-31T09:37:46.444Z,100887.27
2022-08-31T09:40:24.324Z,100883.21
2022-08-31T09:43:07.765Z,100882.92
2022-08-31T09:45:49.840Z,100881.77
2022-08-31T09:48:43.572Z,100881.05
2022-08-31T09:51:24.010Z,100881.30
2022-08-31T09:54:13.832Z,100878.54
2022-08-31T09:56:58.760Z,100883.66
2022-08-31T09:59:38.568Z,100880.77
2022-08-31T10:02:13.982Z,100876.66
2022-08-31T10:04:55.544Z,100872.52
2022-08-31T10:07:39.051Z,100873.92
2022-08-31T10:10:28.231Z,100873.30
2022-08-31T10:13:06.649Z,100876.08
2022-08-31T10:15:44.518Z,100873.75
2022-08-31T10:18:21.941Z,100870.11
2022-08-31T10:21:04.853Z,100871.54
2022-08-31T10:23:54.621Z,100867.17
2022-08-31T10:26:36.708Z,100862.09
2022-08-31T10:29:22.781Z,100861.46
2022-08-31T10:32:01.596Z,100865.80
2022-08-31T10:34:54.784Z,100865.72
2022-08-31T10:37:37.097Z,100864.34
2022-08-31T10:40:14.356Z,100864.39
2022-08-31T10:42:50.722Z,100864.04
2022-08-31T10:45:25.419Z,100859.58
2022-08-31T10:47:57.332Z,100860.41
2022-08-31T10:50:45.236Z,100863.90
2022-08-31T10:53:35.967Z,100862.34
2022-08-31T10:56:19.094Z,100861.17
2022-08-31T10:59:13.001Z,100859.45
2022-08-31T11:01:54.513Z,100849.83
2022-08-31T11:05:03.534Z,100851.65
2022-08-31T11:07:45.234Z,100850.57
2022-08-31T11:10:25.406Z,100843.17
2022-08-31T11:12:59.472Z,100842.79
2022-08-31T11:16:00.464Z,100841.66
2022-08-31T11:19:19.738Z,100841.70
2022-08-31T11:22:18.986Z,100839.21
2022-08-31T11:25:15.174Z,100840.63
2022-08-31T11:27:51.705Z,100843.66
2022-08-31T11:30:28.067Z,100841.23
2022-08-31T11:33:05.974Z,100838.54
2022-08-31T11:36:10.083Z,100836.50
2022-08-31T11:38:52.383Z,100831.26
2022-08-31T11:41:46.984Z,100828.05
2022-08-31T11:45:00.490Z,100825.55
2022-08-31T11:47:47.209Z,100832.38
2022-08-31T11:50:56.294Z,100829.35
2022-08-31T11:53:35.342Z,100826.95
2022-08-31T11:56:09.759Z,100825.80
2022-08-31T11:58:42.612Z,100820.70
2022-08-31T12:01:43.205Z,100817.02
2022-08-31T12:04:53.814Z,100812.11
2022-08-31T12:07:29.553Z,100812.46
2022-08-31T12:10:34.866Z,100811.37
2022-08-31T12:13:36.963Z,100812.39
2022-08-31T12:16:21.289Z,100807.08
2022-08-31T12:19:34.461Z,100802.98
2022-08-31T12:22:37.083Z,100800.38
2022-08-31T12:25:20.361Z,100787.32
2022-08-31T12:28:02.493Z,100788.64
2022-08-31T12:30:33.839Z,100784.59
2022-08-31T12:33:11.692Z,100779.95
2022-08-31T12:35:46.505Z,100772.67
2022-08-31T12:38:22.448Z,100766.92
2022-08-31T12:40:56.215Z,100762.52
2022-08-31T12:43:33.458Z,100763.02
2022-08-31T12:46:26.747Z,100760.57
2022-08-31T12:49:16.787Z,100757.64
2022-08-31T12:51:51.719Z,100754.35
2022-08-31T12:54:56.517Z,100750.95
2022-08-31T12:57:59.497Z,100752.36
2022-08-31T13:00:33.905Z,100750.62
2022-08-31T13:03:18.268Z,100747.94
2022-08-31T13:06:09.133Z,100743.95
2022-08-31T13:08:46.693Z,100740.17
2022-08-31T13:11:39.871Z,100736.91
2022-08-31T13:14:18.316Z,100735.04
2022-08-31T13:16:52.437Z,100736.98
2022-08-31T13:19:26.843Z,100738.30
2022-08-31T13:22:01.582Z,100739.23
2022-08-31T13:24:35.955Z,100740.04
2022-08-31T13:27:12.507Z,100738.11
2022-08-31T13:33:31.210Z,100736.05
2022-08-31T13:36:09.701Z,100735.88
2022-08-31T13:38:54.954Z,100735.02
2022-08-31T13:41:28.668Z,100730.45
2022-08-31T13:44:03.755Z,100736.30
2022-08-31T13:46:43.255Z,100742.77
2022-08-31T13:49:32.547Z,100743.08
2022-08-31T13:52:04.806Z,100743.65
2022-08-31T13:54:37.335Z,100737.58
2022-08-31T13:57:22.794Z,100733.57
2022-08-31T13:59:54.494Z,100738.79
2022-08-31T14:02:36.878Z,100732.52
2022-08-31T14:05:13.105Z,100737.67
2022-08-31T14:08:02.381Z,100737.41
2022-08-31T14:10:37.703Z,100739.70
2022-08-31T14:13:18.609Z,100737.76
2022-08-31T14:15:56.475Z,100741.37
2022-08-31T14:18:32.371Z,100741.16
2022-08-31T14:21:23.440Z,100740.45
2022-08-31T14:24:02.698Z,100738.99
2022-08-31T14:26:37.286Z,100738.40
2022-08-31T14:29:11.453Z,100741.02
2022-08-31T14:31:48.609Z,100736.70
2022-08-31T14:34:36.880Z,100736.39
2022-08-31T14:37:19.875Z,100740.60
2022-08-31T14:39:53.888Z,100739.97
2022-08-31T14:42:28.886Z,100734.18
2022-08-31T14:45:05.122Z,100744.69
2022-08-31T14:47:44.351Z,100740.84
2022-08-31T14:50:18.794Z,100741.91
2022-08-31T14:52:55.488Z,100741.79
2022-08-31T14:55:31.289Z,100742.87
2022-08-31T14:58:09.788Z,100742.79
2022-08-31T15:00:53.710Z,100745.84
2022-08-31T15:03:26.805Z,100745.05
2022-08-31T15:06:00.169Z,100741.81
2022-08-31T15:08:38.625Z,100746.17
2022-08-31T15:11:11.079Z,100743.89
2022-08-31T15:13:57.193Z,100747.61
2022-08-31T15:16:30.996Z,100736.14
2022-08-31T15:19:04.536Z,100742.52
2022-08-31T15:21:35.971Z,100742.07
2022-08-31T15:24:16.356Z,100743.55
2022-08-31T15:26:47.994Z,100741.50
2022-08-31T15:29:20.967Z,100745.66
2022-08-31T15:31:55.547Z,100746.15
2022-08-31T15:34:30.590Z,100746.09
2022-08-31T15:37:03.928Z,100741.64
2022-08-31T15:43:47.157Z,100742.26
2022-08-31T15:46:18.725Z,100742.59
2022-08-31T15:48:52.302Z,100741.30
2022-08-31T15:51:27.990Z,100744.35
2022-08-31T15:54:21.082Z,100745.77
2022-08-31T15:56:54.531Z,100749.98
2022-08-31T15:59:26.572Z,100748.13
2022-08-31T16:01:59.070Z,100755.55
2022-08-31T16:04:31.663Z,100757.20
2022-08-31T16:07:05.244Z,100756.91
2022-08-31T16:09:36.708Z,100754.23
2022-08-31T16:12:11.043Z,100756.36
2022-08-31T16:14:45.409Z,100756.48
2022-08-31T16:17:19.129Z,100756.70
2022-08-31T16:19:53.261Z,100759.27
2022-08-31T16:22:30.549Z,100756.98
2022-08-31T16:25:02.268Z,100756.95
2022-08-31T16:27:35.832Z,100756.20
2022-08-31T16:30:09.153Z,100753.22
2022-08-31T16:32:40.479Z,100751.02
2022-08-31T16:35:12.718Z,100746.55
2022-08-31T16:37:44.833Z,100749.66
2022-08-31T16:44:36.437Z,100750.00
2022-08-31T16:47:08.888Z,100748.75
2022-08-31T16:49:41.432Z,100747.34
2022-08-31T16:52:14.887Z,100749.77
2022-08-31T16:54:52.641Z,100749.90
2022-08-31T16:57:27.353Z,100750.73
2022-08-31T17:00:00.639Z,100751.55
2022-08-31T17:02:54.481Z,100750.05
2022-08-31T17:05:25.791Z,100746.45
2022-08-31T17:07:57.227Z,100747.77
2022-08-31T17:10:34.610Z,100748.50
2022-08-31T17:13:07.328Z,100747.94
2022-08-31T17:15:41.945Z,100748.41
2022-08-31T17:18:16.703Z,100746.59
2022-08-31T17:20:48.720Z,100750.25
2022-08-31T17:23:24.563Z,100750.09
2022-08-31T17:25:55.942Z,100752.00
2022-08-31T17:28:27.098Z,100758.05
2022-08-31T17:31:01.324Z,100763.25
2022-08-31T17:33:35.741Z,100764.27
2022-08-31T17:36:10.089Z,100768.45
2022-08-31T17:38:41.394Z,100771.30
2022-08-31T17:41:13.098Z,100769.89
2022-08-31T17:43:46.743Z,100774.39
2022-08-31T17:46:53.949Z,100771.71
2022-08-31T17:49:26.993Z,100774.02
2022-08-31T17:52:04.698Z,100775.86
2022-08-31T17:54:39.534Z,100776.34
2022-08-31T17:57:13.766Z,100777.59
2022-08-31T17:59:48.798Z,100778.13
2022-08-31T18:02:19.232Z,100777.46
2022-08-31T18:04:52.459Z,100774.25
2022-08-31T18:07:25.086Z,100778.59
2022-08-31T18:09:56.212Z,100777.08
2022-08-31T18:12:27.781Z,100781.27
2022-08-31T18:14:59.319Z,100781.16
2022-08-31T18:17:31.260Z,100784.02
2022-08-31T18:20:03.362Z,100784.42
2022-08-31T18:22:34.804Z,100785.74
2022-08-31T18:25:07.368Z,100787.70
2022-08-31T18:27:38.941Z,100790.06
2022-08-31T18:30:15.184Z,100794.66
2022-08-31T18:32:50.248Z,100796.34
2022-08-31T18:35:22.136Z,100803.16
2022-08-31T18:37:54.534Z,100801.44
2022-08-31T18:40:52.646Z,100799.22
2022-08-31T18:44:31.640Z,100800.11
2022-08-31T18:48:01.675Z,100797.38
2022-08-31T18:50:37.237Z,100801.63
2022-08-31T18:53:15.130Z,100804.13
2022-08-31T18:56:33.485Z,100800.45
2022-08-31T18:59:29.784Z,100796.37
2022-08-31T19:02:01.217Z,100797.10
2022-08-31T19:04:32.982Z,100799.55
2022-08-31T19:07:05.298Z,100798.74
2022-08-31T19:13:35.524Z,100791.90
2022-08-31T19:16:15.206Z,100792.30
2022-08-31T19:18:49.611Z,100787.73
2022-08-31T19:21:45.993Z,100789.42
2022-08-31T19:24:22.088Z,100793.21
2022-08-31T19:26:55.953Z,100789.23
2022-08-31T19:29:30.952Z,100795.33
2022-08-31T19:32:21.614Z,100798.29
2022-08-31T19:34:53.218Z,100794.70
2022-08-31T19:37:24.417Z,100796.43
2022-08-31T19:39:55.729Z,100793.69
2022-08-31T19:45:23.639Z,100795.09
2022-08-31T19:48:01.279Z,100791.89
2022-08-31T19:50:41.502Z,100796.02
2022-08-31T19:53:20.718Z,100794.73
2022-08-31T19:55:57.668Z,100792.44
2022-08-31T19:58:29.897Z,100795.04
2022-08-31T20:01:06.478Z,100797.23
2022-08-31T20:03:37.843Z,100799.63
2022-08-31T20:06:12.954Z,100799.05
2022-08-31T20:08:45.823Z,100795.67
2022-08-31T20:11:21.953Z,100793.73
2022-08-31T20:13:58.650Z,100795.39
2022-08-31T20:16:43.345Z,100797.37
2022-08-31T20:19:39.780Z,100802.25
2022-08-31T20:22:13.964Z,100799.24
2022-08-31T20:25:32.482Z,100801.56
2022-08-31T20:28:07.092Z,100798.88
2022-08-31T20:30:41.815Z,100799.82
2022-08-31T20:33:13.520Z,100802.81
2022-08-31T20:35:47.932Z,100802.67
2022-08-31T20:38:20.257Z,100804.63
2022-08-31T20:40:53.086Z,100805.40
2022-08-31T20:43:24.892Z,100810.48
2022-08-31T20:45:56.286Z,100809.70
2022-08-31T20:48:46.165Z,100810.45
2022-08-31T20:51:41.305Z,100809.15
2022-08-31T20:54:13.714Z,100810.80
2022-08-31T20:56:55.333Z,100809.33
2022-08-31T20:59:31.456Z,100812.20
2022-08-31T21:02:12.481Z,100809.83
2022-08-31T21:04:45.808Z,100809.84
2022-08-31T21:07:19.133Z,100806.98
2022-08-31T21:09:51.246Z,100810.75
2022-08-31T21:12:23.008Z,100813.63
2022-08-31T21:14:55.964Z,100815.77
2022-08-31T21:17:31.533Z,100814.30
2022-08-31T21:20:03.940Z,100816.50
2022-08-31T21:22:35.501Z,100817.20
2022-08-31T21:25:12.622Z,100818.00
2022-08-31T21:27:43.794Z,100818.60
2022-08-31T21:30:15.636Z,100813.74
2022-08-31T21:32:48.563Z,100819.76
2022-08-31T21:35:20.310Z,100823.17
2022-08-31T21:37:51.725Z,100824.20
2022-08-31T21:40:32.128Z,100829.13
2022-08-31T21:43:05.490Z,100829.91
2022-08-31T21:45:38.522Z,100833.63
2022-08-31T21:48:11.460Z,100832.05
2022-08-31T21:50:47.176Z,100831.25
2022-08-31T21:53:25.788Z,100835.54
2022-08-31T21:55:59.230Z,100835.33
2022-08-31T21:58:31.992Z,100838.94
2022-08-31T22:01:03.289Z,100837.14
2022-08-31T22:03:35.813Z,100833.27
2022-08-31T22:06:12.887Z,100834.56
2022-08-31T22:09:00.406Z,100834.16
2022-08-31T22:11:46.698Z,100830.29
2022-08-31T22:14:42.053Z,100829.34
2022-08-31T22:17:14.558Z,100830.42
2022-08-31T22:19:45.562Z,100830.11
2022-08-31T22:22:17.980Z,100831.90
2022-08-31T22:24:49.294Z,100836.33
2022-08-31T22:27:20.293Z,100835.73
2022-08-31T22:29:51.456Z,100840.31
2022-08-31T22:32:22.648Z,100839.55
2022-08-31T22:34:55.383Z,100840.45
2022-08-31T22:37:27.279Z,100841.02
2022-08-31T22:39:58.278Z,100834.38
2022-08-31T22:42:29.303Z,100834.29
2022-08-31T22:45:00.474Z,100831.40
2022-08-31T22:47:49.184Z,100827.14
2022-08-31T22:50:21.055Z,100822.08
2022-08-31T22:52:53.219Z,100821.98
2022-08-31T22:55:24.410Z,100822.96
2022-08-31T22:57:55.495Z,100827.23
2022-08-31T23:00:28.037Z,100826.83
2022-08-31T23:02:59.645Z,100829.52
2022-08-31T23:05:31.265Z,100826.54
2022-08-31T23:08:02.412Z,100826.98
2022-08-31T23:10:35.665Z,100823.85
2022-08-31T23:13:07.283Z,100824.67
2022-08-31T23:15:40.233Z,100826.87
2022-08-31T23:18:15.829Z,100824.44
2022-08-31T23:20:46.876Z,100823.69
2022-08-31T23:23:17.816Z,100821.92
2022-08-31T23:25:50.507Z,100823.41
2022-08-31T23:28:21.705Z,100825.92
2022-08-31T23:30:52.704Z,100825.52
2022-08-31T23:33:25.497Z,100823.55
2022-08-31T23:35:56.589Z,100830.08
2022-08-31T23:38:28.121Z,100828.14
2022-08-31T23:41:00.571Z,100824.31
2022-08-31T23:43:31.713Z,100828.04
2022-08-31T23:46:04.387Z,100823.30
2022-08-31T23:48:35.458Z,100822.50
2022-08-31T23:51:10.656Z,100823.48
2022-08-31T23:53:42.411Z,100821.87
2022-08-31T23:56:32.240Z,100821.61
2022-08-31T23:59:03.873Z,100816.92
